Terminal Aerodrome Forecast
Issued by NWS

Home | Current Version | Previous Version | Text Only | Print | Product List | Glossary On
Versions: 1 2 3 4 5 6 7 8 9 10 11 12 13 14 15 16 17 18 19 20
000
FTUS43 KAPX 192300
TAFMBL
TAF
KMBL 192327Z 2000/2024 27005KT P6SM BKN250
     FM200300 14007KT P6SM BKN250 WS005/15030KT
     FM201100 15010KT P6SM SCT070 BKN150 WS010/18035KT
     FM201500 19010G16KT P6SM SCT060 OVC100
     FM201800 23010G16KT 5SM -RA OVC040
      AMD LTD TO CLD VIS AND WIND=

USA.gov is the U.S. government's official web portal to all federal, state and local government web resources and services.